Time;durP1;ratioP1;P1;durP2;ratioP2;P2;SDS_P1;SDS_P2;PMS_P1;PMS_P2;Temp;Humidity;BMP_temperature;BMP_pressure;BME280_temperature;BME280_humidity;BME280_pressure;Samples;Min_cycle;Max_cycle;Signal;HPM_P1;HPM_P2
2023/03/22 00:01:13;;;;;;;9.30;6.65;;;10.10;99.90;;;;;;5054611;28;20107;-63
2023/03/22 00:03:46;;;;;;;10.80;6.80;;;10.10;99.90;;;;;;5052293;28;20130;-63
2023/03/22 00:06:18;;;;;;;10.45;7.00;;;10.10;99.90;;;;;;5052020;28;20045;-63
2023/03/22 00:08:52;;;;;;;9.50;6.90;;;10.00;99.90;;;;;;5049175;28;20049;-62
2023/03/22 00:11:24;;;;;;;10.13;7.35;;;10.00;99.90;;;;;;5055651;28;20456;-63
2023/03/22 00:13:57;;;;;;;8.50;6.60;;;10.00;99.90;;;;;;5057046;28;20044;-63
2023/03/22 00:16:29;;;;;;;9.23;6.93;;;10.00;99.90;;;;;;5051717;28;20499;-63
2023/03/22 00:19:01;;;;;;;9.00;7.03;;;9.90;99.90;;;;;;5056982;28;20037;-63
2023/03/22 00:21:33;;;;;;;9.10;6.82;;;9.90;99.90;;;;;;5032315;28;20046;-63
2023/03/22 00:24:05;;;;;;;8.60;7.32;;;9.90;99.90;;;;;;5047927;28;20041;-63
2023/03/22 00:26:37;;;;;;;12.55;8.65;;;9.80;99.90;;;;;;5036998;28;20037;-62
2023/03/22 00:29:09;;;;;;;9.85;7.63;;;9.80;99.90;;;;;;5049042;28;20044;-63
2023/03/22 00:31:35;;;;;;;9.75;7.68;;;9.80;99.90;;;;;;5051268;28;20071;-62
2023/03/22 00:34:07;;;;;;;10.38;8.23;;;9.70;99.90;;;;;;5053271;28;20163;-62
2023/03/22 00:36:39;;;;;;;14.88;8.10;;;9.70;99.90;;;;;;5054732;28;20098;-62
2023/03/22 00:39:11;;;;;;;9.65;5.90;;;9.70;99.90;;;;;;5062645;28;20058;-63
2023/03/22 00:41:43;;;;;;;8.25;6.15;;;9.50;99.90;;;;;;5063910;28;20044;-63
2023/03/22 00:44:15;;;;;;;8.82;6.00;;;9.40;99.90;;;;;;5053780;28;20102;-62
2023/03/22 00:46:46;;;;;;;9.77;7.15;;;9.40;99.90;;;;;;5052030;28;20056;-62
2023/03/22 00:49:18;;;;;;;11.60;7.65;;;9.40;99.90;;;;;;5049234;28;20041;-63
2023/03/22 00:51:50;;;;;;;9.63;7.35;;;9.40;99.90;;;;;;5032619;28;20037;-63
2023/03/22 00:54:22;;;;;;;8.75;6.93;;;9.40;99.90;;;;;;5036790;28;20434;-62
2023/03/22 00:56:54;;;;;;;9.95;7.00;;;9.50;99.90;;;;;;5050495;28;20052;-62
2023/03/22 00:59:27;;;;;;;10.55;7.78;;;9.50;99.90;;;;;;5055726;28;20041;-63
2023/03/22 01:01:59;;;;;;;11.15;8.38;;;9.50;99.90;;;;;;5051268;28;20049;-62
2023/03/22 01:04:34;;;;;;;10.95;8.20;;;9.50;99.90;;;;;;5036838;28;20045;-62
2023/03/22 01:07:06;;;;;;;11.77;9.00;;;9.50;99.90;;;;;;5018464;28;20097;-62
2023/03/22 01:09:38;;;;;;;12.97;9.03;;;9.50;99.90;;;;;;5043966;28;20051;-63
2023/03/22 01:12:14;;;;;;;10.18;8.75;;;9.40;99.90;;;;;;5049967;28;20416;-63
2023/03/22 01:14:46;;;;;;;10.82;8.68;;;9.40;99.90;;;;;;5032923;28;20037;-62
2023/03/22 01:17:18;;;;;;;11.50;8.82;;;9.30;99.90;;;;;;5064672;28;20044;-62
2023/03/22 01:19:50;;;;;;;13.55;9.30;;;9.30;99.90;;;;;;5053392;28;20033;-62
2023/03/22 01:22:22;;;;;;;12.07;9.40;;;9.20;99.90;;;;;;5034286;28;20583;-62
2023/03/22 01:24:54;;;;;;;12.05;9.10;;;9.20;99.90;;;;;;5041799;28;20501;-62
2023/03/22 01:27:26;;;;;;;11.30;8.65;;;9.10;99.90;;;;;;5058691;28;20037;-62
2023/03/22 01:29:58;;;;;;;12.60;9.40;;;9.10;99.90;;;;;;5054629;28;20079;-63
2023/03/22 01:32:29;;;;;;;11.38;8.60;;;9.00;99.90;;;;;;5062902;28;20053;-62
2023/03/22 01:35:02;;;;;;;10.93;8.95;;;8.90;99.90;;;;;;5042475;28;20041;-62
2023/03/22 01:37:35;;;;;;;10.80;8.48;;;8.80;99.90;;;;;;5055453;28;20037;-62
2023/03/22 01:40:03;;;;;;;11.52;8.48;;;8.80;99.90;;;;;;5058160;28;20405;-62
2023/03/22 01:42:35;;;;;;;12.82;8.10;;;8.70;99.90;;;;;;5056508;28;20048;-62
2023/03/22 01:45:13;;;;;;;10.48;7.82;;;8.70;99.90;;;;;;5059486;28;20131;-63
2023/03/22 01:47:57;;;;;;;9.60;8.52;;;8.60;99.90;;;;;;5053270;28;20045;-62
2023/03/22 01:50:36;;;;;;;10.85;9.05;;;8.60;99.90;;;;;;5067763;28;20044;-63
2023/03/22 01:53:10;;;;;;;11.70;9.32;;;8.50;99.90;;;;;;5037444;28;20045;-62
2023/03/22 01:55:41;;;;;;;18.75;9.80;;;8.50;99.90;;;;;;5038333;28;20038;-62
2023/03/22 01:58:21;;;;;;;12.73;8.38;;;8.50;99.90;;;;;;5043354;28;20536;-62
2023/03/22 02:00:57;;;;;;;11.13;8.10;;;8.40;99.90;;;;;;5058625;28;20041;-62
2023/03/22 02:04:05;;;;;;;11.68;8.30;;;8.30;99.90;;;;;;5026081;28;20073;-62
2023/03/22 02:06:38;;;;;;;10.57;7.72;;;8.30;99.90;;;;;;5040332;28;20123;-62
2023/03/22 02:09:20;;;;;;;9.95;7.80;;;8.20;99.90;;;;;;5055808;28;20049;-62
2023/03/22 02:12:20;;;;;;;11.48;8.07;;;8.20;99.90;;;;;;5053582;28;20527;-62
2023/03/22 02:14:58;;;;;;;11.88;7.35;;;8.10;99.90;;;;;;5053421;28;20409;-62
2023/03/22 02:18:27;;;;;;;10.48;8.48;;;8.10;99.90;;;;;;5043485;28;20045;-62
2023/03/22 02:21:06;;;;;;;9.60;7.75;;;8.10;99.90;;;;;;5041481;28;20064;-62
2023/03/22 02:24:08;;;;;;;10.02;7.75;;;8.10;99.90;;;;;;5058837;28;20040;-63
2023/03/22 02:26:45;;;;;;;9.57;7.30;;;8.10;99.90;;;;;;5063152;28;20610;-62
2023/03/22 02:29:28;;;;;;;10.07;7.18;;;8.10;99.90;;;;;;5042189;28;20052;-62
2023/03/22 02:32:37;;;;;;;13.83;7.80;;;8.10;99.90;;;;;;5054690;28;20045;-62
2023/03/22 02:35:11;;;;;;;14.98;8.35;;;8.10;99.90;;;;;;5038049;28;20037;-62
2023/03/22 02:37:52;;;;;;;10.70;8.23;;;8.10;99.90;;;;;;5050810;28;20037;-62
2023/03/22 02:40:49;;;;;;;12.63;7.75;;;8.10;99.90;;;;;;5035112;28;20095;-62
2023/03/22 02:43:37;;;;;;;14.50;8.05;;;8.10;99.90;;;;;;5052220;28;20413;-63
2023/03/22 02:46:31;;;;;;;12.85;7.75;;;8.10;99.90;;;;;;5056105;28;20055;-62
2023/03/22 02:49:09;;;;;;;11.10;7.47;;;8.10;99.90;;;;;;5053012;28;20111;-62
2023/03/22 02:52:01;;;;;;;11.35;8.27;;;8.10;99.90;;;;;;5056604;28;20495;-62
2023/03/22 02:55:00;;;;;;;9.65;8.38;;;8.10;99.90;;;;;;5037821;28;20488;-62
2023/03/22 02:57:53;;;;;;;10.10;7.22;;;8.00;99.90;;;;;;5037542;28;20120;-62
2023/03/22 03:00:26;;;;;;;10.18;8.07;;;8.00;99.90;;;;;;5066316;28;20045;-62
2023/03/22 03:03:10;;;;;;;13.55;8.13;;;8.00;99.90;;;;;;5034741;28;20044;-62
2023/03/22 03:05:47;;;;;;;10.65;8.13;;;7.90;99.90;;;;;;5033925;28;20222;-62
2023/03/22 03:08:20;;;;;;;12.20;7.63;;;7.80;99.90;;;;;;5048484;28;20052;-62
2023/03/22 03:10:48;;;;;;;9.65;7.75;;;7.70;99.90;;;;;;5054375;28;20041;-62
2023/03/22 03:13:20;;;;;;;10.43;8.32;;;7.70;99.90;;;;;;5034539;28;20053;-62
2023/03/22 03:15:57;;;;;;;10.93;7.93;;;7.70;99.90;;;;;;5052788;28;20041;-62
2023/03/22 03:18:31;;;;;;;10.00;7.22;;;7.60;99.90;;;;;;5044041;28;20056;-62
2023/03/22 03:21:41;;;;;;;11.13;8.75;;;7.50;99.90;;;;;;5053542;28;20052;-62
2023/03/22 03:24:22;;;;;;;11.85;8.43;;;7.50;99.90;;;;;;5033803;28;20467;-62
2023/03/22 03:27:01;;;;;;;13.35;7.50;;;7.50;99.90;;;;;;5033689;28;20091;-62
2023/03/22 03:29:37;;;;;;;11.15;7.47;;;7.40;99.90;;;;;;5048725;28;20456;-62
2023/03/22 03:32:21;;;;;;;11.35;7.80;;;7.40;99.90;;;;;;5025285;28;20049;-62
2023/03/22 03:35:16;;;;;;;11.25;6.97;;;7.30;99.90;;;;;;5052358;28;20045;-62
2023/03/22 03:38:11;;;;;;;8.50;6.90;;;7.20;99.90;;;;;;5058905;28;20051;-62
2023/03/22 03:40:49;;;;;;;10.70;7.45;;;7.10;99.90;;;;;;5032169;28;20041;-62
2023/03/22 03:43:21;;;;;;;9.25;7.78;;;7.10;99.90;;;;;;5053233;28;20136;-62
2023/03/22 03:45:54;;;;;;;8.23;7.28;;;7.10;99.90;;;;;;5053117;28;20517;-62
2023/03/22 03:48:31;;;;;;;10.15;8.05;;;7.10;99.90;;;;;;5051089;28;20041;-62
2023/03/22 03:51:03;;;;;;;11.38;7.25;;;7.00;99.90;;;;;;5035665;28;20057;-62
2023/03/22 03:53:35;;;;;;;11.50;8.23;;;7.00;99.90;;;;;;5037514;28;20033;-62
2023/03/22 03:56:08;;;;;;;9.48;7.43;;;7.10;99.90;;;;;;5038519;28;20041;-62
2023/03/22 03:58:44;;;;;;;10.45;7.20;;;7.00;99.90;;;;;;5035699;28;20479;-62
2023/03/22 04:01:18;;;;;;;11.65;7.65;;;6.90;99.90;;;;;;5038305;28;20041;-62
2023/03/22 04:03:54;;;;;;;11.85;7.07;;;6.90;99.90;;;;;;5052604;28;20053;-62
2023/03/22 04:06:47;;;;;;;12.10;7.55;;;6.90;99.90;;;;;;5035036;28;20056;-62
2023/03/22 04:09:28;;;;;;;10.65;6.90;;;6.80;99.90;;;;;;5035873;28;20517;-62
2023/03/22 04:12:09;;;;;;;10.82;7.82;;;6.70;99.90;;;;;;5051120;28;20068;-62
2023/03/22 04:14:46;;;;;;;10.68;7.07;;;6.70;99.90;;;;;;5033442;28;20049;-62
2023/03/22 04:17:23;;;;;;;11.25;7.60;;;6.70;99.90;;;;;;5057935;28;20516;-62
2023/03/22 04:19:55;;;;;;;9.38;7.43;;;6.70;99.90;;;;;;5033634;28;20045;-62
2023/03/22 04:22:33;;;;;;;9.77;7.13;;;6.70;99.90;;;;;;5056608;28;20040;-64
2023/03/22 04:25:10;;;;;;;10.63;6.65;;;6.70;99.90;;;;;;5053764;28;20041;-62
2023/03/22 04:27:50;;;;;;;10.40;7.05;;;6.70;99.90;;;;;;5032865;28;20049;-62
2023/03/22 04:30:23;;;;;;;9.52;7.53;;;6.70;99.90;;;;;;5048809;28;20055;-62
2023/03/22 04:33:11;;;;;;;9.45;7.65;;;6.60;99.90;;;;;;5051596;28;20516;-62
2023/03/22 04:36:09;;;;;;;10.02;7.35;;;6.60;99.90;;;;;;5051639;28;20041;-62
2023/03/22 04:38:54;;;;;;;11.20;7.40;;;6.60;99.90;;;;;;5051892;28;20047;-62
2023/03/22 04:41:25;;;;;;;11.27;7.88;;;6.60;99.90;;;;;;5055678;28;20044;-63
2023/03/22 04:44:01;;;;;;;9.30;7.95;;;6.60;99.90;;;;;;5026444;28;20053;-62
2023/03/22 04:46:37;;;;;;;10.88;8.27;;;6.60;99.90;;;;;;5040091;28;20505;-62
2023/03/22 04:49:09;;;;;;;13.20;9.07;;;6.50;99.90;;;;;;5024599;28;20037;-62
2023/03/22 04:51:42;;;;;;;9.50;7.50;;;6.50;99.90;;;;;;5049543;28;20480;-62
2023/03/22 04:54:32;;;;;;;14.73;7.38;;;6.70;99.90;;;;;;5065127;28;20136;-62
2023/03/22 04:56:59;;;;;;;11.13;6.28;;;6.70;99.90;;;;;;5066070;28;20037;-62
2023/03/22 04:59:37;;;;;;;8.77;6.40;;;6.70;99.90;;;;;;5034619;28;20041;-62
2023/03/22 05:02:09;;;;;;;14.30;6.68;;;6.70;99.90;;;;;;5040671;28;20413;-62
2023/03/22 05:04:43;;;;;;;8.75;6.15;;;6.60;99.90;;;;;;5020849;28;20525;-62
2023/03/22 05:07:38;;;;;;;11.40;6.53;;;6.50;99.90;;;;;;5036666;28;20405;-62
2023/03/22 05:10:09;;;;;;;9.60;6.80;;;6.50;99.90;;;;;;5039484;28;20505;-63
2023/03/22 05:12:42;;;;;;;8.77;6.70;;;6.50;99.90;;;;;;5034701;28;20076;-65
2023/03/22 05:15:17;;;;;;;9.57;7.50;;;6.50;99.90;;;;;;5040932;28;20048;-62
2023/03/22 05:17:50;;;;;;;12.35;7.65;;;6.50;99.90;;;;;;5040429;28;20041;-63
2023/03/22 05:20:23;;;;;;;9.32;7.15;;;6.50;99.90;;;;;;5053444;28;20107;-63
2023/03/22 05:23:08;;;;;;;9.48;6.65;;;6.40;99.90;;;;;;5044061;28;20052;-63
2023/03/22 05:25:43;;;;;;;9.93;6.75;;;6.30;99.90;;;;;;5039041;28;20476;-63
2023/03/22 05:28:18;;;;;;;8.83;6.13;;;6.30;99.90;;;;;;5049674;28;20049;-64
2023/03/22 05:31:04;;;;;;;11.25;6.60;;;6.20;99.90;;;;;;5063173;28;20045;-63
2023/03/22 05:33:49;;;;;;;11.60;6.72;;;6.20;99.90;;;;;;5031785;28;20505;-63
2023/03/22 05:36:23;;;;;;;8.73;6.47;;;6.20;99.90;;;;;;5033805;28;20454;-62
2023/03/22 05:39:15;;;;;;;9.93;7.18;;;6.20;99.90;;;;;;5048557;28;20128;-62
2023/03/22 05:41:47;;;;;;;11.23;6.57;;;6.20;99.90;;;;;;5037140;28;20048;-63
2023/03/22 05:44:20;;;;;;;13.15;6.85;;;6.20;99.90;;;;;;5047232;28;20057;-63
2023/03/22 05:47:02;;;;;;;12.27;6.72;;;6.20;99.90;;;;;;5054171;28;20063;-63
2023/03/22 05:49:54;;;;;;;11.98;6.97;;;6.10;99.90;;;;;;5046449;28;20144;-62
2023/03/22 05:52:27;;;;;;;8.43;6.20;;;6.10;99.90;;;;;;5023407;28;20047;-62
2023/03/22 05:55:18;;;;;;;11.43;6.32;;;6.30;99.90;;;;;;5054138;28;20816;-63
2023/03/22 05:57:55;;;;;;;10.32;6.40;;;6.30;99.90;;;;;;5048767;28;20034;-63
2023/03/22 06:00:30;;;;;;;11.32;6.90;;;6.30;99.90;;;;;;5033934;28;20071;-63
2023/03/22 06:03:21;;;;;;;8.90;6.32;;;6.30;99.90;;;;;;5053621;28;20429;-62
2023/03/22 06:05:58;;;;;;;9.38;6.93;;;6.30;99.90;;;;;;5036549;28;20049;-62
2023/03/22 06:08:39;;;;;;;10.75;7.25;;;6.30;99.90;;;;;;5050506;28;20037;-62
2023/03/22 06:11:11;;;;;;;10.35;7.10;;;6.30;99.90;;;;;;5040451;28;20128;-63
2023/03/22 06:13:43;;;;;;;8.93;6.60;;;6.40;99.90;;;;;;5037541;28;20047;-63
2023/03/22 06:16:17;;;;;;;11.23;7.03;;;6.40;99.90;;;;;;5035175;28;20037;-62
2023/03/22 06:18:49;;;;;;;11.05;6.90;;;6.40;99.90;;;;;;5036379;28;20052;-63
2023/03/22 06:21:21;;;;;;;11.77;7.30;;;6.40;99.90;;;;;;5062260;28;20041;-62
2023/03/22 06:23:52;;;;;;;19.58;11.10;;;6.40;99.90;;;;;;5051492;28;20052;-63
2023/03/22 06:26:21;;;;;;;27.00;15.48;;;6.50;99.90;;;;;;5051455;28;20044;-62
2023/03/22 06:28:53;;;;;;;28.27;14.23;;;6.50;99.90;;;;;;5036451;28;20070;-62
2023/03/22 06:31:25;;;;;;;12.02;8.00;;;6.60;99.90;;;;;;5037312;28;20045;-63
2023/03/22 06:34:04;;;;;;;9.20;6.60;;;6.60;99.90;;;;;;5037818;28;20068;-62
2023/03/22 06:36:41;;;;;;;13.65;6.57;;;6.70;99.90;;;;;;5035830;28;20551;-62
2023/03/22 06:39:19;;;;;;;10.73;6.30;;;6.70;99.90;;;;;;5032845;28;20127;-62
2023/03/22 06:41:52;;;;;;;8.80;7.10;;;6.80;99.90;;;;;;5034838;28;20103;-63
2023/03/22 06:44:24;;;;;;;11.10;6.88;;;6.90;99.90;;;;;;5043421;28;20059;-63
2023/03/22 06:47:07;;;;;;;9.43;6.53;;;7.00;99.90;;;;;;5054697;28;20051;-63
2023/03/22 06:49:40;;;;;;;9.20;6.15;;;7.20;99.90;;;;;;5038229;28;20567;-63
2023/03/22 06:52:21;;;;;;;10.50;7.75;;;7.30;99.90;;;;;;5036201;28;20377;-63
2023/03/22 06:54:55;;;;;;;11.43;6.50;;;7.40;99.90;;;;;;5048325;28;20072;-63
2023/03/22 06:57:28;;;;;;;8.50;6.43;;;7.50;99.90;;;;;;5055859;28;20503;-63
2023/03/22 07:00:00;;;;;;;9.13;6.82;;;7.60;99.90;;;;;;5034637;28;20060;-63
2023/03/22 07:02:33;;;;;;;10.27;6.25;;;7.70;99.90;;;;;;5050550;28;20045;-63
2023/03/22 07:05:16;;;;;;;8.60;5.70;;;7.70;99.90;;;;;;5038145;28;20568;-62
2023/03/22 07:07:48;;;;;;;8.57;5.75;;;7.80;99.90;;;;;;5031654;28;20041;-62
2023/03/22 07:10:21;;;;;;;7.43;5.78;;;7.90;99.90;;;;;;5050293;28;20053;-64
2023/03/22 07:12:53;;;;;;;9.82;5.75;;;8.00;99.90;;;;;;5033959;28;20064;-62
2023/03/22 07:15:25;;;;;;;21.52;15.85;;;8.00;99.90;;;;;;5038168;28;20091;-63
2023/03/22 07:18:02;;;;;;;15.52;12.10;;;8.10;99.90;;;;;;5035649;28;20571;-63
2023/03/22 07:20:37;;;;;;;19.08;13.02;;;8.20;99.90;;;;;;5038352;28;20045;-63
2023/03/22 07:23:09;;;;;;;33.42;11.70;;;8.30;99.90;;;;;;5033426;28;20409;-63
2023/03/22 07:25:50;;;;;;;13.35;9.63;;;8.30;99.90;;;;;;5033877;28;20071;-63
2023/03/22 07:28:33;;;;;;;;;;;8.40;99.90;;;;;;5063420;28;20072;-63
2023/03/22 07:31:10;;;;;;;13.57;9.25;;;8.40;99.90;;;;;;5053571;28;19943;-63
2023/03/22 07:33:45;;;;;;;20.90;10.50;;;8.50;99.90;;;;;;5034810;28;20479;-63
2023/03/22 07:36:22;;;;;;;15.38;8.63;;;8.50;99.90;;;;;;5037991;28;20049;-63
2023/03/22 07:38:54;;;;;;;8.30;5.63;;;8.70;99.90;;;;;;5033802;28;20410;-63
2023/03/22 07:41:33;;;;;;;5.22;4.28;;;8.80;99.90;;;;;;5035184;28;20044;-63
2023/03/22 07:44:33;;;;;;;5.45;3.63;;;9.00;99.90;;;;;;5051840;28;20421;-63
2023/03/22 07:47:17;;;;;;;4.43;3.47;;;9.50;99.90;;;;;;5053243;28;20048;-62
2023/03/22 07:50:12;;;;;;;5.45;3.35;;;9.90;99.90;;;;;;5046046;28;20587;-63
2023/03/22 07:52:50;;;;;;;4.78;3.33;;;10.20;99.90;;;;;;5019045;28;20512;-62
2023/03/22 07:55:22;;;;;;;6.13;4.03;;;10.40;99.90;;;;;;5043171;28;20055;-63
2023/03/22 07:57:55;;;;;;;5.60;3.60;;;10.60;99.90;;;;;;5050315;28;20648;-63
2023/03/22 08:00:27;;;;;;;4.20;3.08;;;10.60;99.90;;;;;;5035903;28;20639;-63
2023/03/22 08:03:18;;;;;;;4.10;3.38;;;10.80;99.90;;;;;;5051169;28;20069;-63
2023/03/22 08:06:01;;;;;;;3.55;2.75;;;10.90;99.90;;;;;;5045866;28;20045;-63
2023/03/22 08:08:35;;;;;;;4.18;2.60;;;11.10;99.90;;;;;;5048510;28;20068;-63
2023/03/22 08:11:07;;;;;;;3.60;2.47;;;11.20;99.90;;;;;;5050166;28;20041;-63
2023/03/22 08:13:39;;;;;;;3.83;2.63;;;11.30;99.90;;;;;;5059177;28;20122;-63
2023/03/22 08:16:11;;;;;;;4.53;2.95;;;11.50;99.90;;;;;;5038991;28;20156;-63
2023/03/22 08:18:38;;;;;;;4.15;2.85;;;11.60;99.90;;;;;;5040964;28;20032;-63
2023/03/22 08:21:10;;;;;;;3.42;2.80;;;11.70;99.90;;;;;;5053123;28;20068;-63
2023/03/22 08:23:44;;;;;;;3.00;2.42;;;11.80;99.90;;;;;;5035710;28;20509;-63
2023/03/22 08:26:34;;;;;;;3.80;2.42;;;11.90;99.90;;;;;;5054930;28;20051;-63
2023/03/22 08:29:15;;;;;;;4.95;3.42;;;12.00;99.90;;;;;;5047800;28;20459;-63
2023/03/22 08:31:47;;;;;;;3.20;2.40;;;12.10;99.90;;;;;;5034288;28;20049;-63
2023/03/22 08:34:19;;;;;;;4.43;2.47;;;12.20;99.90;;;;;;5033473;28;20436;-63
2023/03/22 08:36:52;;;;;;;2.97;2.58;;;12.20;99.90;;;;;;5041359;28;20049;-63
2023/03/22 08:39:24;;;;;;;5.32;2.80;;;12.30;99.90;;;;;;5045702;28;20041;-63
2023/03/22 08:42:12;;;;;;;4.55;2.75;;;12.40;99.90;;;;;;5049762;28;20506;-63
2023/03/22 08:44:45;;;;;;;3.85;2.55;;;12.60;99.90;;;;;;5034247;28;20115;-63
2023/03/22 08:47:17;;;;;;;7.65;2.97;;;12.60;99.90;;;;;;5051401;28;20531;-63
2023/03/22 08:49:53;;;;;;;3.72;2.83;;;12.70;99.90;;;;;;5036707;28;20130;-63
2023/03/22 08:52:59;;;;;;;3.38;2.00;;;12.80;99.90;;;;;;5041833;28;20226;-63
2023/03/22 08:55:30;;;;;;;2.83;1.80;;;12.90;99.90;;;;;;5042083;28;20033;-63
2023/03/22 08:58:10;;;;;;;3.13;2.03;;;13.00;99.90;;;;;;5050475;28;20138;-63
2023/03/22 09:01:12;;;;;;;2.50;2.00;;;13.10;99.90;;;;;;5043301;28;20057;-63
2023/03/22 09:03:52;;;;;;;3.38;2.13;;;13.30;99.90;;;;;;5034579;28;20045;-63
2023/03/22 09:06:25;;;;;;;6.40;2.67;;;13.40;99.90;;;;;;5053483;28;20041;-63
2023/03/22 09:08:57;;;;;;;3.13;2.05;;;13.50;99.90;;;;;;5035671;28;20501;-63
2023/03/22 09:11:30;;;;;;;4.95;1.80;;;13.60;99.90;;;;;;5052178;28;20103;-63
2023/03/22 09:14:02;;;;;;;1.45;1.33;;;13.80;99.90;;;;;;5034632;28;20049;-63
2023/03/22 09:16:34;;;;;;;2.03;1.48;;;13.80;99.90;;;;;;5053832;28;20041;-63
2023/03/22 09:19:06;;;;;;;2.72;1.30;;;13.90;99.90;;;;;;5050741;28;20523;-63
2023/03/22 09:21:39;;;;;;;2.08;1.17;;;14.00;99.90;;;;;;5045763;28;20032;-63
2023/03/22 09:24:13;;;;;;;1.40;1.02;;;14.10;99.90;;;;;;5029486;28;20048;-63
2023/03/22 09:26:50;;;;;;;2.85;1.23;;;14.20;99.90;;;;;;5032842;28;20063;-63
2023/03/22 09:29:22;;;;;;;2.10;0.98;;;14.30;99.90;;;;;;5048986;28;20041;-63
2023/03/22 09:31:54;;;;;;;3.25;1.23;;;14.40;99.90;;;;;;5051189;28;20107;-63
2023/03/22 09:34:30;;;;;;;2.25;1.40;;;14.50;99.90;;;;;;5049270;28;20067;-63
2023/03/22 09:37:01;;;;;;;6.40;2.60;;;14.60;99.90;;;;;;5065497;28;20075;-63
2023/03/22 09:39:44;;;;;;;1.92;1.60;;;14.60;99.90;;;;;;5049129;28;20045;-63
2023/03/22 09:42:24;;;;;;;3.28;2.00;;;14.60;99.90;;;;;;5031076;28;20128;-63
2023/03/22 09:45:01;;;;;;;3.33;2.45;;;14.60;99.90;;;;;;5060824;28;20045;-63
2023/03/22 09:47:37;;;;;;;3.33;2.20;;;14.60;99.90;;;;;;5035585;28;20075;-63
2023/03/22 09:50:17;;;;;;;3.13;2.38;;;14.50;99.90;;;;;;5052152;28;20029;-63
2023/03/22 09:52:50;;;;;;;4.18;2.50;;;14.70;99.90;;;;;;5056871;28;20040;-63
2023/03/22 09:55:43;;;;;;;4.37;3.17;;;14.70;99.90;;;;;;5056266;28;20091;-63
2023/03/22 09:58:34;;;;;;;3.05;2.60;;;14.80;99.90;;;;;;5036077;28;20045;-63
2023/03/22 10:01:28;;;;;;;3.22;2.47;;;14.90;99.90;;;;;;5019660;28;20111;-63
2023/03/22 10:04:24;;;;;;;2.83;2.28;;;15.00;99.90;;;;;;5036441;28;20041;-63
2023/03/22 10:07:08;;;;;;;3.45;2.25;;;15.10;99.90;;;;;;5052707;28;20451;-63
2023/03/22 10:10:05;;;;;;;4.28;2.40;;;15.20;99.90;;;;;;5061370;28;20049;-63
2023/03/22 10:13:00;;;;;;;2.97;2.15;;;15.20;99.90;;;;;;5055488;28;20052;-63
2023/03/22 10:15:40;;;;;;;3.25;2.00;;;15.20;99.90;;;;;;5038912;28;20060;-63
2023/03/22 10:18:35;;;;;;;3.08;2.25;;;15.30;99.90;;;;;;5036641;28;20037;-63
2023/03/22 10:21:11;;;;;;;4.18;2.08;;;15.30;99.90;;;;;;5054621;28;20503;-63
2023/03/22 10:23:44;;;;;;;3.00;2.30;;;15.30;99.90;;;;;;5055203;28;20071;-63
2023/03/22 10:26:38;;;;;;;3.45;2.42;;;15.40;99.90;;;;;;5053962;28;20048;-63
2023/03/22 10:29:38;;;;;;;3.97;1.73;;;15.40;99.90;;;;;;5054598;28;20037;-63
2023/03/22 10:32:14;;;;;;;3.25;2.15;;;15.50;99.90;;;;;;5056651;28;20053;-63
2023/03/22 10:34:46;;;;;;;3.38;1.70;;;15.60;99.90;;;;;;5053143;28;20044;-63
2023/03/22 10:37:25;;;;;;;2.47;1.88;;;15.70;99.90;;;;;;5055913;28;20040;-63
2023/03/22 10:40:01;;;;;;;2.88;1.70;;;15.90;99.90;;;;;;5054969;28;20033;-63
2023/03/22 10:42:37;;;;;;;3.22;2.20;;;15.90;99.90;;;;;;5054913;28;20041;-63
2023/03/22 10:45:14;;;;;;;4.45;2.10;;;16.00;99.90;;;;;;5035265;28;20053;-63
2023/03/22 10:48:03;;;;;;;2.47;1.67;;;16.00;99.90;;;;;;5045657;28;20045;-63
2023/03/22 10:50:39;;;;;;;2.72;2.10;;;16.00;99.90;;;;;;5051367;28;20052;-63
2023/03/22 10:53:18;;;;;;;4.20;2.50;;;16.00;99.90;;;;;;5052018;28;20501;-63
2023/03/22 10:55:51;;;;;;;4.10;2.15;;;16.00;99.90;;;;;;5048185;28;20849;-63
2023/03/22 10:58:36;;;;;;;3.92;2.17;;;16.20;99.90;;;;;;5052790;28;20045;-63
2023/03/22 11:01:40;;;;;;;2.65;2.22;;;16.30;99.90;;;;;;5067489;28;20060;-63
2023/03/22 11:04:14;;;;;;;2.95;2.20;;;16.40;99.90;;;;;;5052927;28;20052;-63
2023/03/22 11:06:52;;;;;;;4.07;2.20;;;16.40;99.90;;;;;;5067797;28;20505;-62
2023/03/22 11:09:24;;;;;;;2.95;2.50;;;16.40;99.90;;;;;;5051509;28;20045;-63
2023/03/22 11:11:58;;;;;;;6.53;3.05;;;16.50;99.90;;;;;;5046790;28;20065;-63
2023/03/22 11:14:35;;;;;;;2.10;1.70;;;16.50;99.90;;;;;;5050930;28;20049;-63
2023/03/22 11:17:13;;;;;;;2.13;1.60;;;16.50;99.90;;;;;;5051485;28;20057;-63
2023/03/22 11:19:59;;;;;;;3.53;1.95;;;16.50;99.90;;;;;;5050346;28;20095;-63
2023/03/22 11:22:37;;;;;;;2.80;2.03;;;16.60;99.90;;;;;;5052452;28;20433;-63
2023/03/22 11:25:20;;;;;;;3.20;2.15;;;16.70;99.90;;;;;;5048323;28;20045;-63
2023/03/22 11:28:04;;;;;;;3.55;2.22;;;16.80;99.90;;;;;;5037029;28;20461;-63
2023/03/22 11:30:36;;;;;;;2.53;1.88;;;16.90;99.90;;;;;;5053981;28;20044;-63
2023/03/22 11:33:24;;;;;;;5.70;1.77;;;16.90;99.90;;;;;;5054682;28;20052;-63
2023/03/22 11:35:59;;;;;;;2.78;1.98;;;17.00;99.90;;;;;;5052475;28;20041;-63
2023/03/22 11:38:37;;;;;;;2.55;1.90;;;17.00;99.90;;;;;;5051404;28;20424;-63
2023/03/22 11:41:25;;;;;;;2.00;1.50;;;17.00;99.90;;;;;;5051114;28;20091;-63
2023/03/22 11:43:56;;;;;;;2.75;1.38;;;17.10;99.90;;;;;;5051695;28;20033;-63
2023/03/22 11:46:30;;;;;;;1.85;1.30;;;17.20;99.90;;;;;;5050293;28;20049;-63
2023/03/22 11:49:07;;;;;;;2.20;1.33;;;17.30;99.90;;;;;;5056637;28;20041;-63
2023/03/22 11:51:40;;;;;;;1.60;1.30;;;17.30;99.90;;;;;;5049020;28;20097;-62
2023/03/22 11:54:15;;;;;;;2.65;1.50;;;17.30;99.90;;;;;;5051875;28;20302;-63
2023/03/22 11:56:47;;;;;;;2.88;1.50;;;17.30;99.90;;;;;;5052390;28;20037;-62
2023/03/22 11:59:26;;;;;;;3.88;2.85;;;17.30;99.70;;;;;;5050203;28;20060;-62
2023/03/22 12:02:20;;;;;;;2.20;1.40;;;17.30;99.90;;;;;;5047630;28;20049;-64
2023/03/22 12:05:24;;;;;;;2.35;1.50;;;17.40;99.30;;;;;;5047660;28;20509;-62
2023/03/22 12:08:29;;;;;;;6.32;1.95;;;17.50;99.70;;;;;;5044033;28;20068;-62
2023/03/22 12:11:06;;;;;;;1.75;1.38;;;17.40;98.30;;;;;;5048729;28;20041;-63
2023/03/22 12:13:50;;;;;;;4.10;1.42;;;17.50;98.50;;;;;;5046711;28;20042;-63
2023/03/22 12:16:28;;;;;;;15.95;3.38;;;17.50;98.90;;;;;;5049222;28;20045;-62
2023/03/22 12:19:08;;;;;;;2.03;1.42;;;17.60;97.00;;;;;;5012469;28;20072;-62
2023/03/22 12:21:41;;;;;;;4.55;1.40;;;17.50;96.70;;;;;;5050082;28;20124;-62
2023/03/22 12:24:27;;;;;;;;;;;17.50;97.60;;;;;;5046833;28;20095;-62
2023/03/22 12:27:36;;;;;;;2.53;1.98;;;17.70;97.00;;;;;;5047129;28;20400;-62
2023/03/22 12:30:11;;;;;;;2.88;1.70;;;17.70;96.00;;;;;;5017678;28;20080;-62
2023/03/22 12:32:58;;;;;;;2.15;1.67;;;17.70;97.20;;;;;;5048400;28;20484;-63
2023/03/22 12:35:33;;;;;;;1.90;1.58;;;17.70;96.00;;;;;;5044415;28;20464;-63
2023/03/22 12:38:20;;;;;;;2.20;2.00;;;17.80;95.30;;;;;;5049913;28;20405;-62
2023/03/22 12:40:55;;;;;;;3.10;1.58;;;18.00;94.60;;;;;;5049719;28;20124;-62
2023/03/22 12:43:50;;;;;;;3.30;1.70;;;18.00;94.70;;;;;;5032745;28;20457;-62
2023/03/22 12:46:40;;;;;;;2.85;1.88;;;18.10;94.20;;;;;;5045986;28;20103;-62
2023/03/22 12:49:32;;;;;;;2.60;2.03;;;18.20;94.50;;;;;;5049036;28;20115;-62
2023/03/22 12:52:16;;;;;;;2.60;1.98;;;18.20;94.70;;;;;;5061878;28;20576;-62
2023/03/22 12:54:49;;;;;;;3.58;2.80;;;18.10;94.40;;;;;;5047313;28;20045;-63
2023/03/22 12:57:21;;;;;;;4.68;1.98;;;17.90;94.90;;;;;;5048789;28;20041;-62
2023/03/22 12:59:57;;;;;;;3.28;2.10;;;17.90;94.20;;;;;;5046054;28;20080;-62
2023/03/22 13:02:33;;;;;;;2.72;1.60;;;17.90;94.00;;;;;;5047883;28;20045;-63
2023/03/22 13:05:08;;;;;;;2.22;1.70;;;18.00;94.40;;;;;;5044114;28;20037;-62
2023/03/22 13:07:46;;;;;;;2.70;1.63;;;18.00;94.40;;;;;;5048332;28;20401;-62
2023/03/22 13:10:35;;;;;;;4.15;2.20;;;18.20;93.10;;;;;;5045908;28;20041;-63
2023/03/22 13:13:20;;;;;;;3.33;1.83;;;18.20;94.00;;;;;;5047268;28;20042;-63
2023/03/22 13:16:18;;;;;;;2.03;1.60;;;18.10;94.20;;;;;;5048237;28;20048;-63
2023/03/22 13:18:51;;;;;;;2.03;1.75;;;18.10;92.30;;;;;;5047157;28;20045;-63
2023/03/22 13:21:31;;;;;;;4.10;1.77;;;18.10;92.60;;;;;;5047768;28;20063;-63
2023/03/22 13:24:09;;;;;;;3.03;2.08;;;18.10;93.40;;;;;;5043427;28;20095;-62
2023/03/22 13:26:57;;;;;;;2.88;2.45;;;18.10;92.60;;;;;;5052425;28;20057;-63
2023/03/22 13:29:35;;;;;;;2.92;1.60;;;18.00;92.90;;;;;;5045574;28;20661;-63
2023/03/22 13:32:32;;;;;;;2.47;2.03;;;18.10;93.00;;;;;;5052381;28;20048;-63
2023/03/22 13:35:18;;;;;;;4.95;2.20;;;18.20;92.60;;;;;;5053161;28;20037;-62
2023/03/22 13:37:50;;;;;;;3.08;1.90;;;18.20;92.90;;;;;;5035096;28;20037;-63
2023/03/22 13:40:35;;;;;;;4.60;1.73;;;18.20;92.50;;;;;;5052805;28;20041;-63
2023/03/22 13:43:45;;;;;;;3.60;1.70;;;18.40;91.90;;;;;;5050942;28;20043;-63
2023/03/22 13:46:20;;;;;;;2.75;2.00;;;18.50;91.20;;;;;;5046169;28;20045;-63
2023/03/22 13:48:46;;;;;;;3.45;1.88;;;18.50;90.90;;;;;;5052011;28;20064;-61